sensor_id;sensor_type;location;lat;lon;timestamp;P1;durP1;ratioP1;P2;durP2;ratioP2
11777;SDS011;5946;51.770;8.548;2023-03-19T00:00:29;16.57;;;13.23;;
11777;SDS011;5946;51.770;8.548;2023-03-19T00:02:55;14.97;;;12.50;;
11777;SDS011;5946;51.770;8.548;2023-03-19T00:05:21;13.83;;;11.07;;
11777;SDS011;5946;51.770;8.548;2023-03-19T00:07:47;14.27;;;11.97;;
11777;SDS011;5946;51.770;8.548;2023-03-19T00:10:13;13.87;;;11.33;;
11777;SDS011;5946;51.770;8.548;2023-03-19T00:12:39;15.57;;;11.43;;
11777;SDS011;5946;51.770;8.548;2023-03-19T00:15:05;18.77;;;12.07;;
11777;SDS011;5946;51.770;8.548;2023-03-19T00:17:33;14.40;;;11.60;;
11777;SDS011;5946;51.770;8.548;2023-03-19T00:19:58;15.60;;;11.50;;
11777;SDS011;5946;51.770;8.548;2023-03-19T00:22:25;16.80;;;11.40;;
11777;SDS011;5946;51.770;8.548;2023-03-19T00:24:51;14.17;;;10.90;;
11777;SDS011;5946;51.770;8.548;2023-03-19T00:27:17;14.50;;;11.00;;
11777;SDS011;5946;51.770;8.548;2023-03-19T00:29:43;14.13;;;10.83;;
11777;SDS011;5946;51.770;8.548;2023-03-19T00:32:09;12.63;;;10.80;;
11777;SDS011;5946;51.770;8.548;2023-03-19T00:34:35;13.40;;;10.80;;
11777;SDS011;5946;51.770;8.548;2023-03-19T00:37:01;16.33;;;11.63;;
11777;SDS011;5946;51.770;8.548;2023-03-19T00:39:27;16.63;;;11.23;;
11777;SDS011;5946;51.770;8.548;2023-03-19T00:41:53;15.37;;;11.33;;
11777;SDS011;5946;51.770;8.548;2023-03-19T00:44:19;15.40;;;10.90;;
11777;SDS011;5946;51.770;8.548;2023-03-19T00:46:45;14.10;;;11.50;;
11777;SDS011;5946;51.770;8.548;2023-03-19T00:49:11;14.97;;;11.00;;
11777;SDS011;5946;51.770;8.548;2023-03-19T00:51:37;20.70;;;10.80;;
11777;SDS011;5946;51.770;8.548;2023-03-19T00:54:07;14.30;;;10.97;;
11777;SDS011;5946;51.770;8.548;2023-03-19T00:56:33;14.20;;;10.47;;
11777;SDS011;5946;51.770;8.548;2023-03-19T00:58:59;13.03;;;10.47;;
11777;SDS011;5946;51.770;8.548;2023-03-19T01:01:25;12.97;;;10.23;;
11777;SDS011;5946;51.770;8.548;2023-03-19T01:03:51;12.27;;;9.60;;
11777;SDS011;5946;51.770;8.548;2023-03-19T01:06:17;12.67;;;9.40;;
11777;SDS011;5946;51.770;8.548;2023-03-19T01:08:43;14.47;;;9.97;;
11777;SDS011;5946;51.770;8.548;2023-03-19T01:11:10;16.17;;;9.87;;
11777;SDS011;5946;51.770;8.548;2023-03-19T01:13:38;13.03;;;10.07;;
11777;SDS011;5946;51.770;8.548;2023-03-19T01:16:04;11.33;;;9.63;;
11777;SDS011;5946;51.770;8.548;2023-03-19T01:18:30;12.13;;;9.60;;
11777;SDS011;5946;51.770;8.548;2023-03-19T01:20:56;12.03;;;9.80;;
11777;SDS011;5946;51.770;8.548;2023-03-19T01:23:22;11.00;;;9.63;;
11777;SDS011;5946;51.770;8.548;2023-03-19T01:25:48;11.80;;;9.10;;
11777;SDS011;5946;51.770;8.548;2023-03-19T01:28:14;13.30;;;9.77;;
11777;SDS011;5946;51.770;8.548;2023-03-19T01:30:40;12.50;;;9.40;;
11777;SDS011;5946;51.770;8.548;2023-03-19T01:33:06;12.53;;;9.20;;
11777;SDS011;5946;51.770;8.548;2023-03-19T01:35:32;14.83;;;9.47;;
11777;SDS011;5946;51.770;8.548;2023-03-19T01:37:58;11.27;;;8.63;;
11777;SDS011;5946;51.770;8.548;2023-03-19T01:40:24;13.03;;;9.93;;
11777;SDS011;5946;51.770;8.548;2023-03-19T01:42:51;11.53;;;9.33;;
11777;SDS011;5946;51.770;8.548;2023-03-19T01:45:30;12.60;;;8.77;;
11777;SDS011;5946;51.770;8.548;2023-03-19T01:47:56;12.53;;;9.13;;
11777;SDS011;5946;51.770;8.548;2023-03-19T01:50:41;13.13;;;8.57;;
11777;SDS011;5946;51.770;8.548;2023-03-19T01:53:08;10.27;;;7.97;;
11777;SDS011;5946;51.770;8.548;2023-03-19T01:55:36;11.97;;;7.43;;
11777;SDS011;5946;51.770;8.548;2023-03-19T01:58:02;12.03;;;7.20;;
11777;SDS011;5946;51.770;8.548;2023-03-19T02:00:30;10.27;;;7.70;;
11777;SDS011;5946;51.770;8.548;2023-03-19T02:02:57;10.37;;;7.20;;
11777;SDS011;5946;51.770;8.548;2023-03-19T02:05:24;13.33;;;6.93;;
11777;SDS011;5946;51.770;8.548;2023-03-19T02:07:52;8.73;;;7.07;;
11777;SDS011;5946;51.770;8.548;2023-03-19T02:10:19;12.93;;;7.27;;
11777;SDS011;5946;51.770;8.548;2023-03-19T02:12:45;9.23;;;6.47;;
11777;SDS011;5946;51.770;8.548;2023-03-19T02:15:12;8.87;;;5.77;;
11777;SDS011;5946;51.770;8.548;2023-03-19T02:17:38;10.63;;;6.37;;
11777;SDS011;5946;51.770;8.548;2023-03-19T02:25:29;10.60;;;5.83;;
11777;SDS011;5946;51.770;8.548;2023-03-19T02:27:57;8.27;;;5.80;;
11777;SDS011;5946;51.770;8.548;2023-03-19T02:30:29;7.57;;;5.33;;
11777;SDS011;5946;51.770;8.548;2023-03-19T02:32:55;6.83;;;5.53;;
11777;SDS011;5946;51.770;8.548;2023-03-19T02:35:21;8.40;;;5.83;;
11777;SDS011;5946;51.770;8.548;2023-03-19T02:37:47;8.67;;;6.20;;
11777;SDS011;5946;51.770;8.548;2023-03-19T02:40:15;9.53;;;6.20;;
11777;SDS011;5946;51.770;8.548;2023-03-19T02:42:44;8.77;;;5.97;;
11777;SDS011;5946;51.770;8.548;2023-03-19T02:45:10;10.37;;;6.80;;
11777;SDS011;5946;51.770;8.548;2023-03-19T02:47:36;11.17;;;6.63;;
11777;SDS011;5946;51.770;8.548;2023-03-19T02:50:02;9.17;;;6.77;;
11777;SDS011;5946;51.770;8.548;2023-03-19T02:52:28;12.50;;;7.37;;
11777;SDS011;5946;51.770;8.548;2023-03-19T02:54:55;9.73;;;6.97;;
11777;SDS011;5946;51.770;8.548;2023-03-19T02:57:21;9.03;;;7.00;;
11777;SDS011;5946;51.770;8.548;2023-03-19T02:59:46;9.33;;;7.13;;
11777;SDS011;5946;51.770;8.548;2023-03-19T03:02:12;9.30;;;6.90;;
11777;SDS011;5946;51.770;8.548;2023-03-19T03:04:39;8.77;;;6.37;;
11777;SDS011;5946;51.770;8.548;2023-03-19T03:07:05;8.70;;;6.63;;
11777;SDS011;5946;51.770;8.548;2023-03-19T03:09:32;8.53;;;6.70;;
11777;SDS011;5946;51.770;8.548;2023-03-19T03:11:58;9.40;;;6.23;;
11777;SDS011;5946;51.770;8.548;2023-03-19T03:14:24;8.03;;;6.27;;
11777;SDS011;5946;51.770;8.548;2023-03-19T03:16:50;9.00;;;6.13;;
11777;SDS011;5946;51.770;8.548;2023-03-19T03:19:16;8.07;;;6.00;;
11777;SDS011;5946;51.770;8.548;2023-03-19T03:21:42;8.67;;;5.87;;
11777;SDS011;5946;51.770;8.548;2023-03-19T03:24:08;7.07;;;6.10;;
11777;SDS011;5946;51.770;8.548;2023-03-19T03:26:34;7.33;;;5.80;;
11777;SDS011;5946;51.770;8.548;2023-03-19T03:29:03;11.73;;;6.77;;
11777;SDS011;5946;51.770;8.548;2023-03-19T03:31:29;9.20;;;6.93;;
11777;SDS011;5946;51.770;8.548;2023-03-19T03:33:55;8.70;;;6.90;;
11777;SDS011;5946;51.770;8.548;2023-03-19T03:36:21;11.73;;;6.77;;
11777;SDS011;5946;51.770;8.548;2023-03-19T03:38:47;8.53;;;6.30;;
11777;SDS011;5946;51.770;8.548;2023-03-19T03:41:13;10.37;;;7.33;;
11777;SDS011;5946;51.770;8.548;2023-03-19T03:43:39;8.13;;;7.17;;
11777;SDS011;5946;51.770;8.548;2023-03-19T03:46:05;11.43;;;7.10;;
11777;SDS011;5946;51.770;8.548;2023-03-19T03:48:32;9.10;;;7.30;;
11777;SDS011;5946;51.770;8.548;2023-03-19T03:50:58;8.60;;;7.13;;
11777;SDS011;5946;51.770;8.548;2023-03-19T03:53:25;9.00;;;7.00;;
11777;SDS011;5946;51.770;8.548;2023-03-19T03:55:51;8.83;;;7.23;;
11777;SDS011;5946;51.770;8.548;2023-03-19T03:58:17;9.50;;;7.30;;
11777;SDS011;5946;51.770;8.548;2023-03-19T04:00:43;11.37;;;8.30;;
11777;SDS011;5946;51.770;8.548;2023-03-19T04:03:10;10.70;;;7.80;;
11777;SDS011;5946;51.770;8.548;2023-03-19T04:05:36;10.33;;;7.50;;
11777;SDS011;5946;51.770;8.548;2023-03-19T04:08:02;11.97;;;7.57;;
11777;SDS011;5946;51.770;8.548;2023-03-19T04:10:28;7.90;;;6.57;;
11777;SDS011;5946;51.770;8.548;2023-03-19T04:12:55;9.93;;;7.47;;
11777;SDS011;5946;51.770;8.548;2023-03-19T04:15:21;11.00;;;6.97;;
11777;SDS011;5946;51.770;8.548;2023-03-19T04:17:48;9.77;;;7.00;;
11777;SDS011;5946;51.770;8.548;2023-03-19T04:20:14;12.93;;;7.13;;
11777;SDS011;5946;51.770;8.548;2023-03-19T04:22:42;10.70;;;7.40;;
11777;SDS011;5946;51.770;8.548;2023-03-19T04:25:08;9.50;;;6.17;;
11777;SDS011;5946;51.770;8.548;2023-03-19T04:27:34;7.40;;;6.10;;
11777;SDS011;5946;51.770;8.548;2023-03-19T04:30:00;8.87;;;6.87;;
11777;SDS011;5946;51.770;8.548;2023-03-19T04:32:26;9.97;;;6.40;;
11777;SDS011;5946;51.770;8.548;2023-03-19T04:34:52;11.07;;;7.33;;
11777;SDS011;5946;51.770;8.548;2023-03-19T04:37:18;12.03;;;7.03;;
11777;SDS011;5946;51.770;8.548;2023-03-19T04:39:44;11.23;;;6.40;;
11777;SDS011;5946;51.770;8.548;2023-03-19T04:42:10;10.37;;;6.27;;
11777;SDS011;5946;51.770;8.548;2023-03-19T04:44:36;6.97;;;6.07;;
11777;SDS011;5946;51.770;8.548;2023-03-19T04:47:03;7.47;;;6.13;;
11777;SDS011;5946;51.770;8.548;2023-03-19T04:49:29;8.47;;;6.20;;
11777;SDS011;5946;51.770;8.548;2023-03-19T04:51:55;8.63;;;5.90;;
11777;SDS011;5946;51.770;8.548;2023-03-19T04:54:21;7.93;;;5.97;;
11777;SDS011;5946;51.770;8.548;2023-03-19T04:56:48;7.87;;;6.00;;
11777;SDS011;5946;51.770;8.548;2023-03-19T04:59:14;10.77;;;6.40;;
11777;SDS011;5946;51.770;8.548;2023-03-19T05:01:40;8.90;;;6.10;;
11777;SDS011;5946;51.770;8.548;2023-03-19T05:04:07;9.03;;;6.23;;
11777;SDS011;5946;51.770;8.548;2023-03-19T05:06:33;9.73;;;6.40;;
11777;SDS011;5946;51.770;8.548;2023-03-19T05:09:00;6.53;;;5.83;;
11777;SDS011;5946;51.770;8.548;2023-03-19T05:11:26;10.53;;;6.40;;
11777;SDS011;5946;51.770;8.548;2023-03-19T05:13:52;11.60;;;6.40;;
11777;SDS011;5946;51.770;8.548;2023-03-19T05:16:18;8.23;;;6.27;;
11777;SDS011;5946;51.770;8.548;2023-03-19T05:18:44;10.67;;;6.87;;
11777;SDS011;5946;51.770;8.548;2023-03-19T05:21:10;9.13;;;6.20;;
11777;SDS011;5946;51.770;8.548;2023-03-19T05:23:36;10.23;;;6.20;;
11777;SDS011;5946;51.770;8.548;2023-03-19T05:26:02;10.27;;;6.30;;
11777;SDS011;5946;51.770;8.548;2023-03-19T05:28:28;8.53;;;6.27;;
11777;SDS011;5946;51.770;8.548;2023-03-19T05:30:54;12.43;;;6.37;;
11777;SDS011;5946;51.770;8.548;2023-03-19T05:33:21;8.20;;;6.50;;
11777;SDS011;5946;51.770;8.548;2023-03-19T05:35:47;10.60;;;6.53;;
11777;SDS011;5946;51.770;8.548;2023-03-19T05:38:13;9.37;;;6.63;;
11777;SDS011;5946;51.770;8.548;2023-03-19T05:40:39;9.23;;;6.77;;
11777;SDS011;5946;51.770;8.548;2023-03-19T05:43:09;9.00;;;7.00;;
11777;SDS011;5946;51.770;8.548;2023-03-19T05:45:35;10.43;;;6.97;;
11777;SDS011;5946;51.770;8.548;2023-03-19T05:48:03;8.43;;;6.37;;
11777;SDS011;5946;51.770;8.548;2023-03-19T05:50:29;9.80;;;6.70;;
11777;SDS011;5946;51.770;8.548;2023-03-19T05:52:57;8.47;;;6.27;;
11777;SDS011;5946;51.770;8.548;2023-03-19T05:55:23;11.67;;;6.90;;
11777;SDS011;5946;51.770;8.548;2023-03-19T05:57:49;10.10;;;6.70;;
11777;SDS011;5946;51.770;8.548;2023-03-19T06:00:15;9.20;;;5.97;;
11777;SDS011;5946;51.770;8.548;2023-03-19T06:02:42;10.87;;;6.60;;
11777;SDS011;5946;51.770;8.548;2023-03-19T06:05:08;8.43;;;6.40;;
11777;SDS011;5946;51.770;8.548;2023-03-19T06:07:35;8.77;;;6.60;;
11777;SDS011;5946;51.770;8.548;2023-03-19T06:10:01;9.70;;;6.80;;
11777;SDS011;5946;51.770;8.548;2023-03-19T06:12:28;8.77;;;6.23;;
11777;SDS011;5946;51.770;8.548;2023-03-19T06:14:55;8.27;;;6.50;;
11777;SDS011;5946;51.770;8.548;2023-03-19T06:17:21;7.73;;;6.00;;
11777;SDS011;5946;51.770;8.548;2023-03-19T06:19:47;9.40;;;6.40;;
11777;SDS011;5946;51.770;8.548;2023-03-19T06:22:13;9.07;;;6.47;;
11777;SDS011;5946;51.770;8.548;2023-03-19T06:24:38;11.77;;;6.30;;
11777;SDS011;5946;51.770;8.548;2023-03-19T06:27:04;8.97;;;5.60;;
11777;SDS011;5946;51.770;8.548;2023-03-19T06:29:30;8.47;;;5.70;;
11777;SDS011;5946;51.770;8.548;2023-03-19T06:31:56;8.00;;;5.07;;
11777;SDS011;5946;51.770;8.548;2023-03-19T06:34:22;8.63;;;4.77;;
11777;SDS011;5946;51.770;8.548;2023-03-19T06:36:48;6.67;;;5.00;;
11777;SDS011;5946;51.770;8.548;2023-03-19T06:39:14;8.37;;;4.17;;
11777;SDS011;5946;51.770;8.548;2023-03-19T06:41:40;4.37;;;3.87;;
11777;SDS011;5946;51.770;8.548;2023-03-19T06:44:06;7.47;;;4.23;;
11777;SDS011;5946;51.770;8.548;2023-03-19T06:46:32;5.73;;;4.20;;
11777;SDS011;5946;51.770;8.548;2023-03-19T06:48:58;7.77;;;4.57;;
11777;SDS011;5946;51.770;8.548;2023-03-19T06:51:24;9.90;;;6.13;;
11777;SDS011;5946;51.770;8.548;2023-03-19T06:53:51;10.30;;;6.70;;
11777;SDS011;5946;51.770;8.548;2023-03-19T06:56:17;8.60;;;5.70;;
11777;SDS011;5946;51.770;8.548;2023-03-19T06:58:43;6.77;;;5.40;;
11777;SDS011;5946;51.770;8.548;2023-03-19T07:01:09;5.73;;;5.07;;
11777;SDS011;5946;51.770;8.548;2023-03-19T07:03:35;7.50;;;4.90;;
11777;SDS011;5946;51.770;8.548;2023-03-19T07:06:01;5.47;;;4.37;;
11777;SDS011;5946;51.770;8.548;2023-03-19T07:08:27;5.13;;;4.30;;
11777;SDS011;5946;51.770;8.548;2023-03-19T07:11:01;4.77;;;4.07;;
11777;SDS011;5946;51.770;8.548;2023-03-19T07:13:27;6.07;;;4.07;;
11777;SDS011;5946;51.770;8.548;2023-03-19T07:15:53;5.57;;;3.70;;
11777;SDS011;5946;51.770;8.548;2023-03-19T07:18:19;6.43;;;4.00;;
11777;SDS011;5946;51.770;8.548;2023-03-19T07:20:45;7.07;;;4.23;;
11777;SDS011;5946;51.770;8.548;2023-03-19T07:23:11;5.50;;;3.77;;
11777;SDS011;5946;51.770;8.548;2023-03-19T07:25:37;11.30;;;3.90;;
11777;SDS011;5946;51.770;8.548;2023-03-19T07:28:03;5.70;;;3.30;;
11777;SDS011;5946;51.770;8.548;2023-03-19T07:30:30;3.60;;;3.30;;
11777;SDS011;5946;51.770;8.548;2023-03-19T07:32:56;6.40;;;3.20;;
11777;SDS011;5946;51.770;8.548;2023-03-19T07:35:22;4.53;;;3.57;;
11777;SDS011;5946;51.770;8.548;2023-03-19T07:37:48;5.80;;;3.00;;
11777;SDS011;5946;51.770;8.548;2023-03-19T07:40:14;8.47;;;3.10;;
11777;SDS011;5946;51.770;8.548;2023-03-19T07:42:40;6.77;;;3.50;;
11777;SDS011;5946;51.770;8.548;2023-03-19T07:45:06;6.07;;;3.77;;
11777;SDS011;5946;51.770;8.548;2023-03-19T07:47:33;6.17;;;3.63;;
11777;SDS011;5946;51.770;8.548;2023-03-19T07:49:59;4.93;;;3.30;;
11777;SDS011;5946;51.770;8.548;2023-03-19T07:52:25;3.60;;;3.30;;
11777;SDS011;5946;51.770;8.548;2023-03-19T07:54:51;7.17;;;3.43;;
11777;SDS011;5946;51.770;8.548;2023-03-19T07:57:17;6.50;;;2.93;;
11777;SDS011;5946;51.770;8.548;2023-03-19T07:59:43;4.97;;;3.00;;
11777;SDS011;5946;51.770;8.548;2023-03-19T08:02:10;5.73;;;3.10;;
11777;SDS011;5946;51.770;8.548;2023-03-19T08:04:36;5.73;;;2.70;;
11777;SDS011;5946;51.770;8.548;2023-03-19T08:07:02;4.53;;;3.07;;
11777;SDS011;5946;51.770;8.548;2023-03-19T08:09:28;6.27;;;2.80;;
11777;SDS011;5946;51.770;8.548;2023-03-19T08:11:54;5.40;;;2.67;;
11777;SDS011;5946;51.770;8.548;2023-03-19T08:14:20;5.83;;;3.00;;
11777;SDS011;5946;51.770;8.548;2023-03-19T08:16:47;4.80;;;2.67;;
11777;SDS011;5946;51.770;8.548;2023-03-19T08:19:13;5.73;;;2.70;;
11777;SDS011;5946;51.770;8.548;2023-03-19T08:21:40;4.23;;;2.70;;
11777;SDS011;5946;51.770;8.548;2023-03-19T08:24:06;3.73;;;2.73;;
11777;SDS011;5946;51.770;8.548;2023-03-19T08:26:32;3.67;;;2.50;;
11777;SDS011;5946;51.770;8.548;2023-03-19T08:28:58;3.27;;;2.30;;
11777;SDS011;5946;51.770;8.548;2023-03-19T08:31:24;6.53;;;2.70;;
11777;SDS011;5946;51.770;8.548;2023-03-19T08:33:50;5.97;;;2.50;;
11777;SDS011;5946;51.770;8.548;2023-03-19T08:36:16;4.73;;;2.70;;
11777;SDS011;5946;51.770;8.548;2023-03-19T08:38:42;4.33;;;2.90;;
11777;SDS011;5946;51.770;8.548;2023-03-19T08:41:08;3.50;;;2.77;;
11777;SDS011;5946;51.770;8.548;2023-03-19T08:43:35;6.00;;;3.20;;
11777;SDS011;5946;51.770;8.548;2023-03-19T08:46:02;7.90;;;3.30;;
11777;SDS011;5946;51.770;8.548;2023-03-19T08:48:28;6.30;;;3.43;;
11777;SDS011;5946;51.770;8.548;2023-03-19T08:50:55;5.00;;;3.00;;
11777;SDS011;5946;51.770;8.548;2023-03-19T08:53:25;4.80;;;2.50;;
11777;SDS011;5946;51.770;8.548;2023-03-19T08:55:52;5.23;;;3.30;;
11777;SDS011;5946;51.770;8.548;2023-03-19T08:58:18;6.57;;;3.37;;
11777;SDS011;5946;51.770;8.548;2023-03-19T09:00:44;4.73;;;2.90;;
11777;SDS011;5946;51.770;8.548;2023-03-19T09:03:10;3.87;;;2.90;;
11777;SDS011;5946;51.770;8.548;2023-03-19T09:05:36;4.57;;;2.70;;
11777;SDS011;5946;51.770;8.548;2023-03-19T09:08:03;4.40;;;2.40;;
11777;SDS011;5946;51.770;8.548;2023-03-19T09:10:28;4.43;;;2.40;;
11777;SDS011;5946;51.770;8.548;2023-03-19T09:12:55;4.70;;;2.33;;
11777;SDS011;5946;51.770;8.548;2023-03-19T09:15:21;4.17;;;2.50;;
11777;SDS011;5946;51.770;8.548;2023-03-19T09:17:46;4.80;;;2.30;;
11777;SDS011;5946;51.770;8.548;2023-03-19T09:20:12;3.30;;;2.47;;
11777;SDS011;5946;51.770;8.548;2023-03-19T09:22:38;6.53;;;2.53;;
11777;SDS011;5946;51.770;8.548;2023-03-19T09:25:05;2.97;;;2.40;;
11777;SDS011;5946;51.770;8.548;2023-03-19T09:27:31;2.93;;;2.40;;
11777;SDS011;5946;51.770;8.548;2023-03-19T09:29:57;3.83;;;2.23;;
11777;SDS011;5946;51.770;8.548;2023-03-19T09:32:23;3.17;;;2.23;;
11777;SDS011;5946;51.770;8.548;2023-03-19T09:34:49;3.50;;;2.40;;
11777;SDS011;5946;51.770;8.548;2023-03-19T09:37:15;3.20;;;2.00;;
11777;SDS011;5946;51.770;8.548;2023-03-19T09:39:41;3.20;;;1.97;;
11777;SDS011;5946;51.770;8.548;2023-03-19T09:44:52;4.57;;;2.30;;
11777;SDS011;5946;51.770;8.548;2023-03-19T09:47:28;5.13;;;2.33;;
11777;SDS011;5946;51.770;8.548;2023-03-19T09:49:56;2.80;;;2.13;;
11777;SDS011;5946;51.770;8.548;2023-03-19T09:52:29;2.53;;;2.20;;
11777;SDS011;5946;51.770;8.548;2023-03-19T09:54:56;4.73;;;2.50;;
11777;SDS011;5946;51.770;8.548;2023-03-19T09:57:24;7.13;;;2.80;;
11777;SDS011;5946;51.770;8.548;2023-03-19T09:59:53;3.73;;;2.80;;
11777;SDS011;5946;51.770;8.548;2023-03-19T10:11:13;4.33;;;3.23;;
11777;SDS011;5946;51.770;8.548;2023-03-19T10:13:56;5.17;;;3.50;;
11777;SDS011;5946;51.770;8.548;2023-03-19T10:16:27;5.37;;;3.90;;
11777;SDS011;5946;51.770;8.548;2023-03-19T10:18:54;5.27;;;4.70;;
11777;SDS011;5946;51.770;8.548;2023-03-19T10:21:33;5.30;;;4.77;;
11777;SDS011;5946;51.770;8.548;2023-03-19T10:26:45;6.27;;;5.27;;
11777;SDS011;5946;51.770;8.548;2023-03-19T10:34:27;5.77;;;4.30;;
11777;SDS011;5946;51.770;8.548;2023-03-19T10:37:00;6.40;;;4.73;;
11777;SDS011;5946;51.770;8.548;2023-03-19T10:39:28;6.93;;;4.67;;
11777;SDS011;5946;51.770;8.548;2023-03-19T10:44:31;4.50;;;4.07;;
11777;SDS011;5946;51.770;8.548;2023-03-19T10:47:03;5.43;;;3.93;;
11777;SDS011;5946;51.770;8.548;2023-03-19T10:49:35;4.70;;;3.80;;
11777;SDS011;5946;51.770;8.548;2023-03-19T10:52:01;4.70;;;3.50;;
11777;SDS011;5946;51.770;8.548;2023-03-19T10:54:27;5.97;;;4.10;;
11777;SDS011;5946;51.770;8.548;2023-03-19T10:56:55;3.90;;;3.27;;
11777;SDS011;5946;51.770;8.548;2023-03-19T11:01:47;4.17;;;3.33;;
11777;SDS011;5946;51.770;8.548;2023-03-19T11:04:17;6.73;;;4.10;;
11777;SDS011;5946;51.770;8.548;2023-03-19T11:06:51;5.50;;;3.90;;
11777;SDS011;5946;51.770;8.548;2023-03-19T11:09:18;4.77;;;4.03;;
11777;SDS011;5946;51.770;8.548;2023-03-19T11:11:47;4.50;;;4.03;;
11777;SDS011;5946;51.770;8.548;2023-03-19T11:14:33;5.00;;;4.10;;
11777;SDS011;5946;51.770;8.548;2023-03-19T11:17:14;6.70;;;4.33;;
11777;SDS011;5946;51.770;8.548;2023-03-19T11:19:41;4.27;;;3.80;;
11777;SDS011;5946;51.770;8.548;2023-03-19T11:22:14;4.80;;;4.30;;
11777;SDS011;5946;51.770;8.548;2023-03-19T11:24:47;7.70;;;4.70;;
11777;SDS011;5946;51.770;8.548;2023-03-19T11:27:13;7.50;;;5.17;;
11777;SDS011;5946;51.770;8.548;2023-03-19T11:29:43;7.07;;;5.20;;
11777;SDS011;5946;51.770;8.548;2023-03-19T11:34:48;7.50;;;5.17;;
11777;SDS011;5946;51.770;8.548;2023-03-19T11:37:22;8.43;;;5.97;;
11777;SDS011;5946;51.770;8.548;2023-03-19T11:45:32;6.27;;;5.67;;
11777;SDS011;5946;51.770;8.548;2023-03-19T11:48:23;7.17;;;6.27;;
11777;SDS011;5946;51.770;8.548;2023-03-19T11:50:57;6.57;;;5.83;;
11777;SDS011;5946;51.770;8.548;2023-03-19T11:58:43;6.77;;;6.03;;
11777;SDS011;5946;51.770;8.548;2023-03-19T12:01:39;8.40;;;6.67;;
11777;SDS011;5946;51.770;8.548;2023-03-19T12:11:51;5.60;;;5.03;;
11777;SDS011;5946;51.770;8.548;2023-03-19T12:19:41;6.37;;;5.40;;
11777;SDS011;5946;51.770;8.548;2023-03-19T12:22:15;5.87;;;5.23;;
11777;SDS011;5946;51.770;8.548;2023-03-19T12:24:50;5.43;;;4.87;;
11777;SDS011;5946;51.770;8.548;2023-03-19T12:27:42;5.63;;;5.10;;
11777;SDS011;5946;51.770;8.548;2023-03-19T12:30:11;4.80;;;4.40;;
11777;SDS011;5946;51.770;8.548;2023-03-19T12:35:10;4.47;;;4.07;;
11777;SDS011;5946;51.770;8.548;2023-03-19T12:37:41;4.47;;;3.47;;
11777;SDS011;5946;51.770;8.548;2023-03-19T12:42:44;5.67;;;3.30;;
11777;SDS011;5946;51.770;8.548;2023-03-19T12:45:53;3.77;;;3.37;;
11777;SDS011;5946;51.770;8.548;2023-03-19T12:48:04;3.60;;;3.30;;
11777;SDS011;5946;51.770;8.548;2023-03-19T12:50:33;5.43;;;3.83;;
11777;SDS011;5946;51.770;8.548;2023-03-19T12:53:01;4.80;;;3.90;;
11777;SDS011;5946;51.770;8.548;2023-03-19T12:55:36;4.73;;;3.87;;
11777;SDS011;5946;51.770;8.548;2023-03-19T12:58:22;5.00;;;3.90;;
11777;SDS011;5946;51.770;8.548;2023-03-19T13:03:31;5.63;;;4.30;;
11777;SDS011;5946;51.770;8.548;2023-03-19T13:06:00;4.00;;;3.60;;
11777;SDS011;5946;51.770;8.548;2023-03-19T13:08:41;4.47;;;3.73;;
11777;SDS011;5946;51.770;8.548;2023-03-19T13:11:16;4.03;;;3.57;;
11777;SDS011;5946;51.770;8.548;2023-03-19T13:13:57;4.17;;;3.17;;
11777;SDS011;5946;51.770;8.548;2023-03-19T13:16:33;4.67;;;4.17;;
11777;SDS011;5946;51.770;8.548;2023-03-19T13:19:12;4.97;;;4.40;;
11777;SDS011;5946;51.770;8.548;2023-03-19T13:21:42;5.20;;;4.20;;
11777;SDS011;5946;51.770;8.548;2023-03-19T13:24:22;6.50;;;4.67;;
11777;SDS011;5946;51.770;8.548;2023-03-19T13:26:50;5.07;;;4.47;;
11777;SDS011;5946;51.770;8.548;2023-03-19T13:29:21;6.30;;;4.70;;
11777;SDS011;5946;51.770;8.548;2023-03-19T13:31:47;7.27;;;5.27;;
11777;SDS011;5946;51.770;8.548;2023-03-19T13:36:46;6.93;;;5.07;;
11777;SDS011;5946;51.770;8.548;2023-03-19T13:39:14;8.57;;;6.60;;
11777;SDS011;5946;51.770;8.548;2023-03-19T13:44:28;8.63;;;7.20;;
11777;SDS011;5946;51.770;8.548;2023-03-19T13:47:40;13.43;;;9.00;;
11777;SDS011;5946;51.770;8.548;2023-03-19T13:50:10;12.60;;;9.80;;
11777;SDS011;5946;51.770;8.548;2023-03-19T13:55:44;13.70;;;10.57;;
11777;SDS011;5946;51.770;8.548;2023-03-19T14:03:29;12.53;;;10.43;;
11777;SDS011;5946;51.770;8.548;2023-03-19T14:05:55;14.43;;;10.97;;
11777;SDS011;5946;51.770;8.548;2023-03-19T14:08:23;15.87;;;10.87;;
11777;SDS011;5946;51.770;8.548;2023-03-19T14:10:51;14.03;;;9.93;;
11777;SDS011;5946;51.770;8.548;2023-03-19T14:13:27;11.20;;;9.20;;
11777;SDS011;5946;51.770;8.548;2023-03-19T14:15:59;10.83;;;9.37;;
11777;SDS011;5946;51.770;8.548;2023-03-19T14:18:25;13.83;;;9.27;;
11777;SDS011;5946;51.770;8.548;2023-03-19T14:20:59;17.13;;;12.00;;
11777;SDS011;5946;51.770;8.548;2023-03-19T14:23:27;13.90;;;11.07;;
11777;SDS011;5946;51.770;8.548;2023-03-19T14:33:44;22.63;;;18.73;;
11777;SDS011;5946;51.770;8.548;2023-03-19T14:36:13;18.33;;;16.23;;
11777;SDS011;5946;51.770;8.548;2023-03-19T14:38:46;16.93;;;15.23;;
11777;SDS011;5946;51.770;8.548;2023-03-19T14:41:15;16.17;;;14.57;;
11777;SDS011;5946;51.770;8.548;2023-03-19T14:46:15;14.33;;;12.80;;
11777;SDS011;5946;51.770;8.548;2023-03-19T14:53:57;18.00;;;13.10;;
11777;SDS011;5946;51.770;8.548;2023-03-19T14:56:34;14.07;;;8.93;;
11777;SDS011;5946;51.770;8.548;2023-03-19T14:59:00;18.03;;;11.60;;
11777;SDS011;5946;51.770;8.548;2023-03-19T15:01:30;19.53;;;12.30;;
11777;SDS011;5946;51.770;8.548;2023-03-19T15:04:00;18.13;;;12.20;;
11777;SDS011;5946;51.770;8.548;2023-03-19T15:06:48;23.90;;;15.23;;
11777;SDS011;5946;51.770;8.548;2023-03-19T15:09:20;20.63;;;13.10;;
11777;SDS011;5946;51.770;8.548;2023-03-19T15:19:29;15.17;;;11.90;;
11777;SDS011;5946;51.770;8.548;2023-03-19T15:22:30;13.97;;;10.27;;
11777;SDS011;5946;51.770;8.548;2023-03-19T15:24:48;15.80;;;11.20;;
11777;SDS011;5946;51.770;8.548;2023-03-19T15:27:18;18.27;;;10.13;;
11777;SDS011;5946;51.770;8.548;2023-03-19T15:29:45;16.50;;;10.50;;
11777;SDS011;5946;51.770;8.548;2023-03-19T15:32:11;14.23;;;9.93;;
11777;SDS011;5946;51.770;8.548;2023-03-19T15:34:37;13.37;;;10.33;;
11777;SDS011;5946;51.770;8.548;2023-03-19T15:37:07;15.00;;;10.50;;
11777;SDS011;5946;51.770;8.548;2023-03-19T15:39:35;15.50;;;10.97;;
11777;SDS011;5946;51.770;8.548;2023-03-19T15:42:03;16.73;;;11.00;;
11777;SDS011;5946;51.770;8.548;2023-03-19T15:46:55;15.27;;;10.43;;
11777;SDS011;5946;51.770;8.548;2023-03-19T15:49:27;13.10;;;9.57;;
11777;SDS011;5946;51.770;8.548;2023-03-19T15:51:55;13.87;;;9.87;;
11777;SDS011;5946;51.770;8.548;2023-03-19T15:54:23;12.60;;;9.30;;
11777;SDS011;5946;51.770;8.548;2023-03-19T15:56:49;10.23;;;8.40;;
11777;SDS011;5946;51.770;8.548;2023-03-19T15:59:17;13.90;;;8.90;;
11777;SDS011;5946;51.770;8.548;2023-03-19T16:01:45;9.93;;;7.83;;
11777;SDS011;5946;51.770;8.548;2023-03-19T16:04:15;9.80;;;8.20;;
11777;SDS011;5946;51.770;8.548;2023-03-19T16:06:45;11.80;;;8.90;;
11777;SDS011;5946;51.770;8.548;2023-03-19T16:11:44;13.43;;;9.97;;
11777;SDS011;5946;51.770;8.548;2023-03-19T16:14:14;14.63;;;10.33;;
11777;SDS011;5946;51.770;8.548;2023-03-19T16:16:45;12.93;;;10.00;;
11777;SDS011;5946;51.770;8.548;2023-03-19T16:22:16;14.47;;;10.53;;
11777;SDS011;5946;51.770;8.548;2023-03-19T16:24:44;14.97;;;11.13;;
11777;SDS011;5946;51.770;8.548;2023-03-19T16:27:12;19.37;;;11.87;;
11777;SDS011;5946;51.770;8.548;2023-03-19T16:29:39;20.53;;;15.77;;
11777;SDS011;5946;51.770;8.548;2023-03-19T16:34:36;17.83;;;13.63;;
11777;SDS011;5946;51.770;8.548;2023-03-19T16:37:23;18.50;;;12.70;;
11777;SDS011;5946;51.770;8.548;2023-03-19T16:39:54;21.67;;;13.00;;
11777;SDS011;5946;51.770;8.548;2023-03-19T16:44:49;17.10;;;12.70;;
11777;SDS011;5946;51.770;8.548;2023-03-19T16:47:15;18.73;;;14.27;;
11777;SDS011;5946;51.770;8.548;2023-03-19T16:49:41;21.03;;;14.53;;
11777;SDS011;5946;51.770;8.548;2023-03-19T16:52:14;19.70;;;13.33;;